Time;durP1;ratioP1;P1;durP2;ratioP2;P2;SDS_P1;SDS_P2;PMS_P1;PMS_P2;Temp;Humidity;BMP_temperature;BMP_pressure;BME280_temperature;BME280_humidity;BME280_pressure;Samples;Min_cycle;Max_cycle;Signal;HPM_P1;HPM_P2
2023/12/13 00:00:37;;;;;;;45.30;40.60;;;;;;;;;;4962428;28;20430;-43
2023/12/13 00:03:03;;;;;;;45.65;41.20;;;;;;;;;;4961138;28;20854;-43
2023/12/13 00:05:29;;;;;;;41.00;37.00;;;;;;;;;;4970337;28;20177;-43
2023/12/13 00:07:55;;;;;;;41.60;37.77;;;;;;;;;;4954297;28;20204;-43
2023/12/13 00:10:21;;;;;;;34.37;31.80;;;;;;;;;;4972731;28;20429;-43
2023/12/13 00:12:47;;;;;;;41.30;37.00;;;;;;;;;;4958820;28;20926;-43
2023/12/13 00:15:13;;;;;;;41.65;37.45;;;;;;;;;;4964523;28;20409;-43
2023/12/13 00:17:39;;;;;;;39.08;35.38;;;;;;;;;;4966582;28;20206;-44
2023/12/13 00:20:07;;;;;;;39.27;35.47;;;;;;;;;;4956096;28;20202;-43
2023/12/13 00:22:33;;;;;;;39.22;35.92;;;;;;;;;;4973378;28;20489;-43
2023/12/13 00:24:59;;;;;;;42.25;38.65;;;;;;;;;;4954861;28;20553;-44
2023/12/13 00:27:25;;;;;;;36.65;33.70;;;;;;;;;;4967398;28;20180;-43
2023/12/13 00:29:51;;;;;;;38.97;35.43;;;;;;;;;;4962418;28;20292;-43
2023/12/13 00:32:17;;;;;;;43.30;39.10;;;;;;;;;;4960138;28;20431;-43
2023/12/13 00:34:43;;;;;;;44.10;39.80;;;;;;;;;;4970671;28;20859;-43
2023/12/13 00:37:09;;;;;;;44.10;39.80;;;;;;;;;;4953816;28;20457;-44
2023/12/13 00:39:35;;;;;;;42.80;38.50;;;;;;;;;;4971169;28;20519;-43
2023/12/13 00:42:01;;;;;;;32.97;30.67;;;;;;;;;;4959242;28;20416;-43
2023/12/13 00:44:27;;;;;;;31.90;29.60;;;;;;;;;;4963534;28;20417;-43
2023/12/13 00:46:53;;;;;;;32.93;30.83;;;;;;;;;;4967303;28;20507;-44
2023/12/13 00:49:20;;;;;;;32.67;30.33;;;;;;;;;;4954859;28;20409;-44
2023/12/13 00:51:46;;;;;;;32.22;29.95;;;;;;;;;;4973182;28;20409;-44
2023/12/13 00:54:12;;;;;;;32.47;30.27;;;;;;;;;;4955609;28;20184;-43
2023/12/13 00:56:38;;;;;;;33.37;31.17;;;;;;;;;;4968871;28;20474;-43
2023/12/13 00:59:04;;;;;;;34.10;31.58;;;;;;;;;;4963314;28;20409;-43
2023/12/13 01:01:30;;;;;;;35.13;32.63;;;;;;;;;;4959013;28;20181;-43
2023/12/13 01:03:56;;;;;;;36.03;33.27;;;;;;;;;;4971491;28;20816;-43
2023/12/13 01:06:21;;;;;;;35.80;33.00;;;;;;;;;;4953632;28;20421;-44
2023/12/13 01:08:47;;;;;;;33.77;31.20;;;;;;;;;;4969935;28;20409;-44
2023/12/13 01:11:13;;;;;;;38.43;35.33;;;;;;;;;;4959883;28;20440;-44
2023/12/13 01:13:41;;;;;;;35.50;32.50;;;;;;;;;;4962106;28;20500;-43
2023/12/13 01:16:07;;;;;;;35.25;32.35;;;;;;;;;;4967596;28;20461;-44
2023/12/13 01:18:33;;;;;;;39.90;36.70;;;;;;;;;;4954016;28;20174;-44
2023/12/13 01:20:59;;;;;;;34.22;31.63;;;;;;;;;;4972635;28;20189;-44
2023/12/13 01:23:27;;;;;;;36.37;33.60;;;;;;;;;;4956068;28;20181;-43
2023/12/13 01:25:52;;;;;;;38.65;35.85;;;;;;;;;;4965857;28;20496;-44
2023/12/13 01:28:18;;;;;;;37.93;34.93;;;;;;;;;;4964060;28;20276;-44
2023/12/13 01:30:44;;;;;;;37.10;34.20;;;;;;;;;;4957867;28;20456;-43
2023/12/13 01:33:10;;;;;;;41.30;38.00;;;;;;;;;;4971864;28;20419;-43
2023/12/13 01:35:36;;;;;;;38.70;35.57;;;;;;;;;;4953474;28;20414;-43
2023/12/13 01:38:02;;;;;;;42.67;38.47;;;;;;;;;;4969779;28;20774;-44
2023/12/13 01:40:28;;;;;;;43.55;39.00;;;;;;;;;;4963640;28;20541;-44
2023/12/13 01:42:54;;;;;;;45.03;40.30;;;;;;;;;;4964814;28;20359;-43
2023/12/13 01:45:21;;;;;;;40.85;36.40;;;;;;;;;;4971836;28;20405;-44
2023/12/13 01:47:47;;;;;;;44.42;39.70;;;;;;;;;;4956677;28;20181;-45
2023/12/13 01:50:13;;;;;;;42.47;38.07;;;;;;;;;;4975704;28;20198;-43
2023/12/13 01:52:39;;;;;;;43.23;38.77;;;;;;;;;;4960118;28;20413;-43
2023/12/13 01:55:05;;;;;;;44.50;40.00;;;;;;;;;;4967971;28;20500;-43
2023/12/13 01:57:31;;;;;;;40.78;37.08;;;;;;;;;;4975518;28;20464;-43
2023/12/13 01:59:57;;;;;;;35.20;31.45;;;;;;;;;;4971851;28;20206;-43
2023/12/13 02:02:23;;;;;;;42.75;38.22;;;;;;;;;;4955511;28;20196;-44
2023/12/13 02:04:49;;;;;;;43.25;38.65;;;;;;;;;;4974724;28;20205;-45
2023/12/13 02:07:15;;;;;;;43.40;39.35;;;;;;;;;;4960102;28;20174;-43
2023/12/13 02:09:41;;;;;;;41.92;37.92;;;;;;;;;;4965711;28;20240;-44
2023/12/13 02:12:07;;;;;;;47.67;43.20;;;;;;;;;;4968177;28;20685;-44
2023/12/13 02:14:35;;;;;;;43.80;39.27;;;;;;;;;;4959824;28;20484;-44
2023/12/13 02:17:01;;;;;;;37.63;34.47;;;;;;;;;;4975465;28;20452;-44
2023/12/13 02:19:27;;;;;;;44.53;39.83;;;;;;;;;;4956150;28;20244;-44
2023/12/13 02:21:53;;;;;;;48.03;43.13;;;;;;;;;;4970695;28;20496;-44
2023/12/13 02:24:23;;;;;;;47.90;43.00;;;;;;;;;;4964354;28;20278;-44
2023/12/13 02:26:50;;;;;;;49.70;44.80;;;;;;;;;;4963104;28;20456;-44
2023/12/13 02:29:17;;;;;;;46.67;42.03;;;;;;;;;;4971166;28;20176;-44
2023/12/13 02:31:44;;;;;;;47.97;43.38;;;;;;;;;;4955842;28;20185;-45
2023/12/13 02:34:10;;;;;;;51.03;46.35;;;;;;;;;;4974811;28;20185;-45
2023/12/13 02:36:36;;;;;;;51.13;46.50;;;;;;;;;;4959814;28;20558;-44
2023/12/13 02:39:03;;;;;;;47.58;42.92;;;;;;;;;;4966324;28;20412;-44
2023/12/13 02:41:29;;;;;;;43.45;39.25;;;;;;;;;;4967412;28;20669;-44
2023/12/13 02:43:55;;;;;;;53.07;48.40;;;;;;;;;;4958890;28;20189;-44
2023/12/13 02:46:21;;;;;;;49.50;44.83;;;;;;;;;;4974842;28;20416;-45
2023/12/13 02:48:47;;;;;;;42.15;37.85;;;;;;;;;;4955492;28;20414;-44
2023/12/13 02:51:13;;;;;;;43.87;40.53;;;;;;;;;;4969227;28;20201;-44
2023/12/13 02:53:40;;;;;;;40.10;37.00;;;;;;;;;;4963715;28;20457;-44
2023/12/13 02:56:06;;;;;;;37.25;34.05;;;;;;;;;;4966356;28;20898;-44
2023/12/13 02:58:32;;;;;;;46.47;42.60;;;;;;;;;;4971426;28;20217;-44
2023/12/13 03:01:00;;;;;;;44.67;40.97;;;;;;;;;;4955261;28;20221;-44
2023/12/13 03:03:27;;;;;;;34.47;31.77;;;;;;;;;;4973813;28;20495;-45
2023/12/13 03:05:53;;;;;;;35.50;32.90;;;;;;;;;;4959022;28;20624;-45
2023/12/13 03:08:19;;;;;;;44.63;40.33;;;;;;;;;;4965682;28;20217;-44
2023/12/13 03:10:45;;;;;;;42.50;38.50;;;;;;;;;;4967537;28;20980;-44
2023/12/13 03:13:11;;;;;;;40.17;36.27;;;;;;;;;;4957770;28;20960;-44
2023/12/13 03:15:37;;;;;;;40.40;36.50;;;;;;;;;;4974602;28;20873;-44
2023/12/13 03:18:03;;;;;;;37.53;34.37;;;;;;;;;;4955956;28;20413;-44
2023/12/13 03:20:30;;;;;;;37.63;34.63;;;;;;;;;;4968636;28;20514;-44
2023/12/13 03:22:56;;;;;;;45.13;41.58;;;;;;;;;;4963671;28;20893;-44
2023/12/13 03:25:22;;;;;;;36.88;33.83;;;;;;;;;;4961081;28;20174;-45
2023/12/13 03:27:48;;;;;;;35.97;32.93;;;;;;;;;;4971598;28;20566;-44
2023/12/13 03:30:14;;;;;;;36.67;33.67;;;;;;;;;;4954323;28;20434;-44
2023/12/13 03:32:40;;;;;;;34.70;31.70;;;;;;;;;;4972338;28;20421;-45
2023/12/13 03:35:06;;;;;;;31.95;29.40;;;;;;;;;;4959843;28;20170;-44
2023/12/13 03:37:33;;;;;;;32.25;29.60;;;;;;;;;;4964479;28;20569;-44
2023/12/13 03:39:59;;;;;;;37.67;35.03;;;;;;;;;;4967340;28;20194;-44
2023/12/13 03:42:25;;;;;;;34.50;32.00;;;;;;;;;;4956482;28;20170;-45
2023/12/13 03:44:53;;;;;;;35.30;32.97;;;;;;;;;;4973788;28;20257;-45
2023/12/13 03:47:19;;;;;;;30.23;28.52;;;;;;;;;;4955905;28;20417;-45
2023/12/13 03:49:44;;;;;;;26.17;24.67;;;;;;;;;;4967455;28;20547;-45
2023/12/13 03:52:11;;;;;;;20.07;18.93;;;;;;;;;;4963871;28;20500;-45
2023/12/13 03:54:36;;;;;;;24.80;23.50;;;;;;;;;;4959856;28;20405;-44
2023/12/13 03:57:02;;;;;;;33.70;31.33;;;;;;;;;;4973093;28;20272;-45
2023/12/13 03:59:28;;;;;;;35.72;33.20;;;;;;;;;;4973161;28;20421;-45
2023/12/13 04:01:54;;;;;;;28.10;26.48;;;;;;;;;;4956008;28;20190;-44
2023/12/13 04:04:20;;;;;;;31.50;29.77;;;;;;;;;;4967036;28;20189;-45
2023/12/13 04:06:46;;;;;;;33.33;31.33;;;;;;;;;;4964204;28;20418;-45
2023/12/13 04:09:14;;;;;;;36.50;33.92;;;;;;;;;;4958668;28;20420;-44
2023/12/13 04:11:40;;;;;;;40.22;36.70;;;;;;;;;;4971923;28;20233;-45
2023/12/13 04:14:06;;;;;;;36.33;33.33;;;;;;;;;;4953994;28;20194;-45
2023/12/13 04:16:32;;;;;;;35.73;33.03;;;;;;;;;;4970404;28;20888;-44
2023/12/13 04:18:58;;;;;;;32.95;30.90;;;;;;;;;;4959991;28;20416;-44
2023/12/13 04:21:24;;;;;;;29.60;27.97;;;;;;;;;;4962515;28;20193;-45
2023/12/13 04:23:50;;;;;;;30.57;28.67;;;;;;;;;;4968332;28;20448;-44
2023/12/13 04:26:16;;;;;;;34.28;31.38;;;;;;;;;;4954886;28;20417;-45
2023/12/13 04:28:42;;;;;;;39.37;36.17;;;;;;;;;;4972901;28;20232;-44
2023/12/13 04:31:08;;;;;;;39.57;36.17;;;;;;;;;;4956578;28;20437;-44
2023/12/13 04:33:35;;;;;;;36.13;33.23;;;;;;;;;;4966167;28;20461;-44
2023/12/13 04:36:02;;;;;;;32.63;30.30;;;;;;;;;;4964573;28;20457;-44
2023/12/13 04:38:28;;;;;;;42.95;39.55;;;;;;;;;;4957878;28;20184;-45
2023/12/13 04:40:54;;;;;;;37.93;34.73;;;;;;;;;;4972543;28;20193;-44
2023/12/13 04:43:20;;;;;;;39.63;36.27;;;;;;;;;;4953829;28;20774;-44
2023/12/13 04:45:46;;;;;;;40.70;37.03;;;;;;;;;;4969423;28;20500;-44
2023/12/13 04:48:12;;;;;;;39.03;35.63;;;;;;;;;;4960656;28;20422;-44
2023/12/13 04:50:38;;;;;;;37.20;34.20;;;;;;;;;;4961315;28;20432;-44
2023/12/13 04:53:04;;;;;;;37.13;34.20;;;;;;;;;;4968827;28;20440;-43
2023/12/13 04:55:30;;;;;;;39.33;35.97;;;;;;;;;;4960112;28;20885;-43
2023/12/13 04:57:56;;;;;;;33.57;31.17;;;;;;;;;;4972766;28;20980;-44
2023/12/13 05:00:22;;;;;;;21.47;20.07;;;;;;;;;;4956797;28;20576;-44
2023/12/13 05:02:48;;;;;;;21.43;20.23;;;;;;;;;;4964704;28;20441;-44
2023/12/13 05:05:14;;;;;;;34.15;31.33;;;;;;;;;;4965415;28;20781;-44
2023/12/13 05:07:40;;;;;;;35.00;32.20;;;;;;;;;;4956758;28;20185;-45
2023/12/13 05:10:06;;;;;;;33.37;30.73;;;;;;;;;;4972424;28;20448;-44
2023/12/13 05:12:32;;;;;;;35.33;32.58;;;;;;;;;;4953807;28;20492;-44
2023/12/13 05:14:58;;;;;;;36.27;33.50;;;;;;;;;;4971926;28;20300;-44
2023/12/13 05:17:24;;;;;;;39.17;35.93;;;;;;;;;;4965414;28;20468;-45
2023/12/13 05:19:50;;;;;;;35.50;32.73;;;;;;;;;;4963505;28;20492;-44
2023/12/13 05:22:16;;;;;;;35.23;32.87;;;;;;;;;;4973595;28;20424;-44
2023/12/13 05:24:42;;;;;;;29.70;27.90;;;;;;;;;;4957044;28;20402;-45
2023/12/13 05:27:08;;;;;;;32.15;30.15;;;;;;;;;;4975251;28;20412;-44
2023/12/13 05:29:35;;;;;;;36.90;34.40;;;;;;;;;;4961178;28;20206;-44
2023/12/13 05:32:01;;;;;;;31.00;28.80;;;;;;;;;;4967310;28;20496;-44
2023/12/13 05:34:27;;;;;;;32.97;30.47;;;;;;;;;;4969607;28;20778;-44
2023/12/13 05:36:53;;;;;;;30.55;28.45;;;;;;;;;;4959132;28;20827;-45
2023/12/13 05:39:19;;;;;;;33.03;30.83;;;;;;;;;;4975780;28;20168;-44
2023/12/13 05:41:45;;;;;;;27.30;25.60;;;;;;;;;;4957899;28;20788;-44
2023/12/13 05:44:11;;;;;;;28.77;26.90;;;;;;;;;;4970450;28;20179;-44
2023/12/13 05:46:37;;;;;;;27.50;25.77;;;;;;;;;;4965814;28;20485;-44
2023/12/13 05:49:05;;;;;;;27.13;25.70;;;;;;;;;;4962041;28;20464;-44
2023/12/13 05:51:31;;;;;;;31.50;29.65;;;;;;;;;;4973530;28;20408;-44
2023/12/13 05:53:58;;;;;;;27.35;25.85;;;;;;;;;;4956634;28;20521;-45
2023/12/13 05:56:24;;;;;;;20.90;19.70;;;;;;;;;;4973993;28;20204;-45
2023/12/13 05:58:50;;;;;;;25.17;23.83;;;;;;;;;;4974818;28;20497;-44
2023/12/13 06:01:16;;;;;;;23.03;21.83;;;;;;;;;;4965701;28;20285;-45
2023/12/13 06:03:42;;;;;;;27.23;25.73;;;;;;;;;;4962105;28;20409;-44
2023/12/13 06:06:08;;;;;;;28.37;26.83;;;;;;;;;;4973667;28;20169;-45
2023/12/13 06:08:34;;;;;;;26.33;24.80;;;;;;;;;;4956069;28;20433;-44
2023/12/13 06:11:00;;;;;;;22.07;20.90;;;;;;;;;;4973291;28;20679;-44
2023/12/13 06:13:27;;;;;;;18.40;17.40;;;;;;;;;;4961966;28;20824;-44
2023/12/13 06:15:53;;;;;;;13.90;13.02;;;;;;;;;;4965472;28;20419;-45
2023/12/13 06:18:19;;;;;;;27.43;25.93;;;;;;;;;;4969627;28;20261;-44
2023/12/13 06:20:45;;;;;;;31.33;29.57;;;;;;;;;;4957249;28;20430;-45
2023/12/13 06:23:11;;;;;;;24.20;22.93;;;;;;;;;;4975387;28;20897;-45
2023/12/13 06:25:37;;;;;;;18.53;17.43;;;;;;;;;;4957126;28;20417;-45
2023/12/13 06:28:04;;;;;;;24.45;23.05;;;;;;;;;;4968494;28;20409;-44
2023/12/13 06:30:30;;;;;;;18.52;17.42;;;;;;;;;;4965782;28;20202;-45
2023/12/13 06:32:56;;;;;;;18.87;17.87;;;;;;;;;;4960910;28;20195;-44
2023/12/13 06:35:22;;;;;;;35.00;32.80;;;;;;;;;;4973941;28;20460;-44
2023/12/13 06:37:48;;;;;;;32.70;30.70;;;;;;;;;;4955662;28;20468;-45
2023/12/13 06:40:14;;;;;;;31.20;29.45;;;;;;;;;;4971664;28;20429;-44
2023/12/13 06:42:41;;;;;;;17.48;16.45;;;;;;;;;;4962379;28;20547;-44
2023/12/13 06:45:07;;;;;;;27.83;26.30;;;;;;;;;;4964284;28;20185;-45
2023/12/13 06:47:33;;;;;;;28.90;27.33;;;;;;;;;;4969668;28;20188;-44
2023/12/13 06:49:59;;;;;;;24.37;22.87;;;;;;;;;;4955050;28;20194;-44
2023/12/13 06:52:25;;;;;;;21.90;20.70;;;;;;;;;;4974304;28;20417;-44
2023/12/13 06:54:52;;;;;;;14.83;14.03;;;;;;;;;;4959565;28;20422;-45
2023/12/13 06:57:19;;;;;;;18.88;17.77;;;;;;;;;;4973341;28;20551;-44
2023/12/13 06:59:45;;;;;;;20.55;19.45;;;;;;;;;;4965334;28;20194;-44
2023/12/13 07:02:11;;;;;;;25.60;24.10;;;;;;;;;;4958977;28;20201;-45
2023/12/13 07:04:37;;;;;;;24.50;23.10;;;;;;;;;;4973530;28;20405;-44
2023/12/13 07:07:04;;;;;;;27.08;25.58;;;;;;;;;;4954579;28;20413;-44
2023/12/13 07:09:30;;;;;;;24.35;23.05;;;;;;;;;;4969883;28;20193;-44
2023/12/13 07:11:56;;;;;;;19.25;18.17;;;;;;;;;;4961849;28;20252;-45
2023/12/13 07:14:22;;;;;;;18.67;17.57;;;;;;;;;;4962838;28;20224;-45
2023/12/13 07:16:48;;;;;;;18.70;17.70;;;;;;;;;;4970203;28;20465;-44
2023/12/13 07:19:14;;;;;;;16.50;15.47;;;;;;;;;;4954788;28;20409;-44
2023/12/13 07:21:40;;;;;;;14.53;13.67;;;;;;;;;;4974032;28;20409;-44
2023/12/13 07:24:06;;;;;;;16.87;15.87;;;;;;;;;;4958619;28;20473;-44
2023/12/13 07:26:32;;;;;;;17.00;16.10;;;;;;;;;;4966030;28;20416;-44
2023/12/13 07:28:57;;;;;;;22.23;21.03;;;;;;;;;;4966457;28;20190;-45
2023/12/13 07:31:23;;;;;;;22.77;21.53;;;;;;;;;;4957938;28;20440;-44
2023/12/13 07:33:49;;;;;;;19.60;18.47;;;;;;;;;;4974006;28;20411;-44
2023/12/13 07:36:15;;;;;;;18.97;17.97;;;;;;;;;;4954706;28;20465;-44
2023/12/13 07:38:41;;;;;;;19.43;18.33;;;;;;;;;;4968870;28;20412;-45
2023/12/13 07:41:08;;;;;;;17.38;16.38;;;;;;;;;;4962819;28;20437;-44
2023/12/13 07:43:34;;;;;;;18.85;17.85;;;;;;;;;;4961289;28;20205;-44
2023/12/13 07:46:00;;;;;;;19.17;18.17;;;;;;;;;;4970980;28;20189;-44
2023/12/13 07:48:26;;;;;;;19.07;17.83;;;;;;;;;;4954221;28;20763;-43
2023/12/13 07:50:53;;;;;;;25.00;23.67;;;;;;;;;;4972477;28;20465;-44
2023/12/13 07:53:19;;;;;;;22.60;21.27;;;;;;;;;;4958923;28;20432;-44
2023/12/13 07:55:46;;;;;;;23.13;21.83;;;;;;;;;;4964539;28;20638;-44
2023/12/13 07:58:12;;;;;;;22.00;20.77;;;;;;;;;;4972918;28;20204;-44
2023/12/13 08:00:38;;;;;;;25.33;23.95;;;;;;;;;;4970604;28;20201;-43
2023/12/13 08:03:04;;;;;;;16.67;15.67;;;;;;;;;;4954252;28;20197;-44
2023/12/13 08:05:30;;;;;;;17.35;16.30;;;;;;;;;;4972097;28;20424;-44
2023/12/13 08:07:56;;;;;;;16.73;15.60;;;;;;;;;;4959054;28;20178;-44
2023/12/13 08:10:22;;;;;;;10.27;9.47;;;;;;;;;;4963708;28;20835;-45
2023/12/13 08:12:48;;;;;;;12.17;11.37;;;;;;;;;;4967183;28;20409;-44
2023/12/13 08:15:14;;;;;;;14.60;13.50;;;;;;;;;;4956692;28;20418;-44
2023/12/13 08:17:40;;;;;;;10.18;9.43;;;;;;;;;;4973254;28;20544;-43
2023/12/13 08:20:06;;;;;;;9.70;8.97;;;;;;;;;;4955270;28;20190;-43
2023/12/13 08:22:33;;;;;;;11.65;10.75;;;;;;;;;;4967226;28;20911;-43
2023/12/13 08:24:59;;;;;;;11.13;10.32;;;;;;;;;;4963467;28;20178;-44
2023/12/13 08:27:25;;;;;;;8.98;8.27;;;;;;;;;;4959386;28;20676;-44
2023/12/13 08:29:52;;;;;;;9.17;8.53;;;;;;;;;;4970894;28;20197;-44
2023/12/13 08:32:17;;;;;;;9.20;8.50;;;;;;;;;;4953821;28;20410;-44
2023/12/13 08:34:44;;;;;;;11.07;10.40;;;;;;;;;;4964603;28;20182;-43
2023/12/13 08:37:10;;;;;;;11.05;10.25;;;;;;;;;;4970955;28;20518;-44
2023/12/13 08:39:36;;;;;;;13.07;12.38;;;;;;;;;;4973237;28;20225;-44
2023/12/13 08:42:03;;;;;;;20.30;19.25;;;;;;;;;;4969607;28;20178;-43
2023/12/13 08:44:29;;;;;;;16.75;15.77;;;;;;;;;;4956503;28;20642;-43
2023/12/13 08:46:56;;;;;;;18.33;17.37;;;;;;;;;;4973613;28;20184;-44
2023/12/13 08:49:21;;;;;;;20.10;19.10;;;;;;;;;;4959437;28;20973;-44
2023/12/13 08:51:47;;;;;;;17.97;16.83;;;;;;;;;;4971715;28;20189;-44
2023/12/13 08:54:13;;;;;;;23.53;22.23;;;;;;;;;;4967617;28;20453;-44
2023/12/13 08:56:39;;;;;;;21.00;19.77;;;;;;;;;;4972435;28;20467;-44
2023/12/13 08:59:05;;;;;;;20.60;19.10;;;;;;;;;;4973839;28;20401;-43
2023/12/13 09:01:31;;;;;;;18.10;17.07;;;;;;;;;;4956756;28;20418;-43
2023/12/13 09:03:57;;;;;;;18.93;17.67;;;;;;;;;;4973300;28;20483;-43
2023/12/13 09:06:24;;;;;;;22.70;21.40;;;;;;;;;;4963296;28;20442;-43
2023/12/13 09:08:50;;;;;;;27.30;25.75;;;;;;;;;;4965114;28;20420;-44
2023/12/13 09:11:16;;;;;;;24.20;22.90;;;;;;;;;;4972065;28;20235;-43
2023/12/13 09:13:42;;;;;;;26.60;25.30;;;;;;;;;;4957594;28;20413;-44
2023/12/13 09:16:08;;;;;;;30.10;28.60;;;;;;;;;;4976670;28;20452;-44
2023/12/13 09:18:34;;;;;;;33.03;31.17;;;;;;;;;;4960288;28;20405;-44
2023/12/13 09:21:00;;;;;;;25.80;24.40;;;;;;;;;;4968621;28;21032;-44
2023/12/13 09:23:26;;;;;;;29.30;27.80;;;;;;;;;;4968643;28;20414;-44
2023/12/13 09:25:53;;;;;;;35.50;33.60;;;;;;;;;;4960860;28;20477;-45
2023/12/13 09:28:19;;;;;;;36.90;34.90;;;;;;;;;;4975725;28;20401;-46
2023/12/13 09:30:45;;;;;;;36.33;34.47;;;;;;;;;;4956869;28;20425;-44
2023/12/13 09:33:12;;;;;;;39.53;37.47;;;;;;;;;;4972322;28;20409;-43
2023/12/13 09:35:38;;;;;;;43.27;41.10;;;;;;;;;;4964932;28;20417;-44
2023/12/13 09:38:07;;;;;;;33.00;31.13;;;;;;;;;;4964186;28;20471;-43
2023/12/13 09:40:33;;;;;;;34.10;32.43;;;;;;;;;;4971711;28;20436;-44
2023/12/13 09:43:02;;;;;;;32.40;30.67;;;;;;;;;;4956847;28;20408;-43
2023/12/13 09:45:30;;;;;;;30.92;29.33;;;;;;;;;;4976080;28;20415;-43
2023/12/13 09:47:56;;;;;;;28.38;26.83;;;;;;;;;;4959503;28;20272;-44
2023/12/13 09:50:23;;;;;;;28.90;27.40;;;;;;;;;;4968268;28;20198;-43
2023/12/13 09:52:50;;;;;;;29.05;27.55;;;;;;;;;;4967410;28;20179;-43
2023/12/13 09:55:16;;;;;;;26.88;25.48;;;;;;;;;;4960946;28;20184;-43
2023/12/13 09:57:42;;;;;;;36.80;34.90;;;;;;;;;;4975143;28;20208;-43
2023/12/13 10:00:12;;;;;;;33.93;32.17;;;;;;;;;;4955900;28;20423;-43
2023/12/13 10:02:38;;;;;;;34.42;32.72;;;;;;;;;;4972408;28;20835;-43
2023/12/13 10:05:05;;;;;;;24.47;23.17;;;;;;;;;;4963387;28;20185;-43
2023/12/13 10:07:31;;;;;;;25.00;23.70;;;;;;;;;;4964688;28;20410;-43
2023/12/13 10:09:57;;;;;;;25.30;23.93;;;;;;;;;;4970546;28;20776;-43
2023/12/13 10:12:25;;;;;;;28.40;27.00;;;;;;;;;;4956654;28;20459;-43
2023/12/13 10:14:51;;;;;;;26.38;25.02;;;;;;;;;;4975568;28;20402;-43
2023/12/13 10:17:21;;;;;;;24.98;23.67;;;;;;;;;;4959000;28;20207;-44
2023/12/13 10:19:47;;;;;;;25.38;24.10;;;;;;;;;;4968414;28;20291;-43
2023/12/13 10:22:13;;;;;;;26.77;25.40;;;;;;;;;;4966548;28;20681;-44
2023/12/13 10:24:41;;;;;;;26.88;25.52;;;;;;;;;;4960770;28;20183;-44
2023/12/13 10:27:07;;;;;;;27.67;25.95;;;;;;;;;;4973304;28;20181;-44
2023/12/13 10:29:33;;;;;;;24.03;22.83;;;;;;;;;;4974615;28;20201;-43
2023/12/13 10:31:59;;;;;;;35.00;33.30;;;;;;;;;;4958413;28;20430;-43
2023/12/13 10:34:25;;;;;;;28.13;26.73;;;;;;;;;;4968223;28;20417;-44
2023/12/13 10:36:53;;;;;;;26.50;25.10;;;;;;;;;;4966288;28;20296;-43
2023/12/13 10:39:19;;;;;;;26.40;25.00;;;;;;;;;;4959947;28;20497;-43
2023/12/13 10:41:47;;;;;;;26.05;24.75;;;;;;;;;;4973923;28;20208;-43
2023/12/13 10:44:16;;;;;;;24.98;23.77;;;;;;;;;;4955507;28;20179;-43
2023/12/13 10:46:46;;;;;;;20.27;19.27;;;;;;;;;;4972413;28;20179;-43
2023/12/13 10:49:14;;;;;;;28.50;26.88;;;;;;;;;;4960869;28;20191;-43
2023/12/13 10:51:40;;;;;;;26.33;25.02;;;;;;;;;;4965147;28;20552;-43
2023/12/13 10:54:07;;;;;;;23.50;22.30;;;;;;;;;;4968954;28;20179;-43
2023/12/13 10:56:33;;;;;;;28.42;26.90;;;;;;;;;;4969905;28;20451;-43
2023/12/13 10:58:59;;;;;;;24.80;23.50;;;;;;;;;;4967158;28;20188;-44
2023/12/13 11:01:25;;;;;;;29.77;28.33;;;;;;;;;;4973753;28;20792;-43
2023/12/13 11:03:58;;;;;;;27.40;26.00;;;;;;;;;;4960960;28;20414;-43
2023/12/13 11:06:27;;;;;;;27.53;26.03;;;;;;;;;;4973062;28;20756;-44
2023/12/13 11:08:52;;;;;;;26.73;25.23;;;;;;;;;;4967263;28;20418;-43
2023/12/13 11:11:19;;;;;;;31.10;29.40;;;;;;;;;;4956526;28;20819;-44
2023/12/13 11:13:48;;;;;;;23.63;22.33;;;;;;;;;;4974362;28;20814;-44
2023/12/13 11:16:25;;;;;;;23.67;22.47;;;;;;;;;;4955366;28;20464;-43
2023/12/13 11:18:52;;;;;;;23.57;22.37;;;;;;;;;;4970538;28;20409;-43
2023/12/13 11:21:25;;;;;;;24.83;23.53;;;;;;;;;;4961584;28;20430;-44
2023/12/13 11:23:52;;;;;;;26.73;25.23;;;;;;;;;;4963577;28;20445;-44
2023/12/13 11:26:19;;;;;;;21.88;20.63;;;;;;;;;;4968737;28;20425;-43
2023/12/13 11:28:52;;;;;;;20.58;19.33;;;;;;;;;;4955680;28;20183;-43
2023/12/13 11:31:25;;;;;;;19.73;18.63;;;;;;;;;;4973766;28;20198;-43
2023/12/13 11:33:55;;;;;;;22.40;21.20;;;;;;;;;;4955094;28;20213;-43
2023/12/13 11:36:21;;;;;;;36.05;34.22;;;;;;;;;;4969313;28;20272;-44
2023/12/13 11:38:49;;;;;;;34.15;32.40;;;;;;;;;;4962181;28;20227;-44
2023/12/13 11:41:17;;;;;;;34.78;32.97;;;;;;;;;;4961539;28;20248;-43
2023/12/13 11:43:43;;;;;;;30.95;29.40;;;;;;;;;;4969834;28;20183;-43
2023/12/13 11:46:09;;;;;;;26.33;25.02;;;;;;;;;;4954515;28;20167;-44
2023/12/13 11:48:36;;;;;;;30.42;28.83;;;;;;;;;;4973179;28;20178;-43
2023/12/13 11:51:02;;;;;;;29.42;27.83;;;;;;;;;;4957949;28;20244;-43
2023/12/13 11:53:28;;;;;;;30.50;28.85;;;;;;;;;;4965213;28;20240;-43
2023/12/13 11:55:54;;;;;;;34.90;32.90;;;;;;;;;;4972842;28;20177;-43
2023/12/13 11:58:20;;;;;;;39.37;36.70;;;;;;;;;;4969751;28;20473;-43
2023/12/13 12:00:45;;;;;;;34.03;31.93;;;;;;;;;;4954179;28;20448;-43
2023/12/13 12:03:11;;;;;;;32.70;30.70;;;;;;;;;;4972246;28;20486;-44
2023/12/13 12:05:37;;;;;;;34.57;32.30;;;;;;;;;;4958645;28;20437;-44
2023/12/13 12:08:06;;;;;;;38.60;35.83;;;;;;;;;;4964018;28;20451;-43
2023/12/13 12:10:33;;;;;;;30.23;28.48;;;;;;;;;;4971186;28;20434;-43
2023/12/13 12:13:03;;;;;;;42.58;39.53;;;;;;;;;;4966408;28;20642;-43
2023/12/13 12:15:31;;;;;;;40.65;37.83;;;;;;;;;;4967641;28;20209;-43
2023/12/13 12:17:57;;;;;;;42.38;39.40;;;;;;;;;;4972135;28;20192;-43
2023/12/13 12:20:26;;;;;;;34.83;32.53;;;;;;;;;;4971523;28;20199;-43
2023/12/13 12:22:52;;;;;;;37.78;35.28;;;;;;;;;;4963517;28;20678;-43
2023/12/13 12:25:20;;;;;;;36.35;33.90;;;;;;;;;;4978270;28;20556;-44
2023/12/13 12:27:48;;;;;;;47.67;43.83;;;;;;;;;;4966302;28;20204;-44
2023/12/13 12:30:14;;;;;;;37.20;34.47;;;;;;;;;;4968925;28;20211;-43
2023/12/13 12:32:40;;;;;;;36.15;33.42;;;;;;;;;;4965575;28;20533;-43
2023/12/13 12:35:06;;;;;;;39.25;36.25;;;;;;;;;;4963246;28;20184;-44
2023/12/13 12:37:32;;;;;;;36.30;33.45;;;;;;;;;;4969722;28;20212;-43
2023/12/13 12:39:58;;;;;;;36.20;33.40;;;;;;;;;;4964714;28;20249;-45
2023/12/13 12:42:24;;;;;;;36.13;33.33;;;;;;;;;;4957315;28;20413;-42
2023/12/13 12:44:50;;;;;;;39.03;36.33;;;;;;;;;;4971446;28;20409;-43
2023/12/13 12:47:16;;;;;;;41.63;38.57;;;;;;;;;;4971950;28;20186;-43
2023/12/13 12:49:42;;;;;;;37.30;34.53;;;;;;;;;;4965713;28;20464;-43
2023/12/13 12:52:08;;;;;;;36.38;33.83;;;;;;;;;;4961185;28;20497;-43
2023/12/13 12:54:34;;;;;;;38.33;35.45;;;;;;;;;;4959546;28;20261;-43
2023/12/13 12:57:00;;;;;;;34.60;32.27;;;;;;;;;;4969355;28;20649;-44
2023/12/13 12:59:26;;;;;;;35.43;33.00;;;;;;;;;;4951884;28;20799;-43
2023/12/13 13:01:52;;;;;;;38.07;35.37;;;;;;;;;;4970537;28;20841;-43
2023/12/13 13:04:19;;;;;;;35.67;33.05;;;;;;;;;;4967173;28;20821;-43
2023/12/13 13:06:46;;;;;;;39.85;36.60;;;;;;;;;;4971322;28;20175;-44
2023/12/13 13:09:13;;;;;;;35.92;33.33;;;;;;;;;;4967758;28;20178;-43
2023/12/13 13:11:39;;;;;;;38.40;35.45;;;;;;;;;;4961729;28;20677;-43
2023/12/13 13:14:05;;;;;;;38.50;35.47;;;;;;;;;;4972018;28;20294;-43
2023/12/13 13:16:35;;;;;;;34.80;32.30;;;;;;;;;;4970995;28;20903;-43
2023/12/13 13:19:03;;;;;;;39.65;36.95;;;;;;;;;;4971167;28;20709;-43
2023/12/13 13:21:28;;;;;;;35.33;32.92;;;;;;;;;;4960958;28;20174;-44
2023/12/13 13:23:54;;;;;;;37.77;35.07;;;;;;;;;;4962310;28;20265;-44
2023/12/13 13:26:20;;;;;;;34.60;32.30;;;;;;;;;;4970998;28;20636;-43
2023/12/13 13:28:47;;;;;;;38.97;36.07;;;;;;;;;;4958533;28;20169;-43
2023/12/13 13:31:15;;;;;;;37.08;34.50;;;;;;;;;;4972204;28;20424;-44
2023/12/13 13:33:41;;;;;;;35.95;33.55;;;;;;;;;;4964146;28;20220;-43
2023/12/13 13:36:07;;;;;;;36.67;34.13;;;;;;;;;;4962977;28;20186;-43
2023/12/13 13:38:33;;;;;;;39.17;36.33;;;;;;;;;;4959813;28;20417;-43
2023/12/13 13:40:59;;;;;;;38.83;36.17;;;;;;;;;;4959633;28;20194;-43
2023/12/13 13:43:26;;;;;;;38.42;35.88;;;;;;;;;;4974827;28;20639;-44
2023/12/13 13:45:52;;;;;;;38.70;36.10;;;;;;;;;;4970965;28;20552;-44
2023/12/13 13:48:20;;;;;;;42.85;40.00;;;;;;;;;;4965212;28;20173;-43
2023/12/13 13:50:46;;;;;;;38.20;35.97;;;;;;;;;;4973040;28;20198;-43
2023/12/13 13:53:12;;;;;;;39.27;37.20;;;;;;;;;;4971495;28;20197;-44
2023/12/13 13:55:38;;;;;;;44.40;41.93;;;;;;;;;;4962191;28;20424;-44
2023/12/13 13:58:04;;;;;;;51.13;47.80;;;;;;;;;;4967608;28;20464;-44
2023/12/13 14:00:30;;;;;;;44.00;41.43;;;;;;;;;;4972015;28;20426;-45
2023/12/13 14:02:56;;;;;;;36.70;34.80;;;;;;;;;;4965930;28;20619;-43
2023/12/13 14:05:22;;;;;;;33.03;31.30;;;;;;;;;;4966565;28;20844;-44
2023/12/13 14:07:49;;;;;;;35.20;33.47;;;;;;;;;;4974230;28;20447;-43
2023/12/13 14:10:15;;;;;;;34.60;32.85;;;;;;;;;;4971309;28;20437;-43
2023/12/13 14:12:41;;;;;;;34.33;32.53;;;;;;;;;;4969468;28;20197;-43